logo
Search for airport 
image banner adimage banner adimage banner ad
image banner ad

SGLPAZ - La PAz

Located in Primavera, Paraguay

ICAO - , IATA -

Data provided by Airmate  

General information

Coordinates: S23°4'56" W56°36'20"
Elevation is 727 feet MSL.
Magnetic variation is -16° East
View others Airports in Amambay Department

Operational data

Special qualification required
Current time UTC:
Current local time:
Weather at : - ( 0 km )
METAR: YSTW 170101Z AUTO 34007KT 9999 // BKN015 OVC043 08/04 Q1017
View NOTAMs / SUP AIP / TFR affecting this airport [VIEW]
Communications frequencies: [VIEW]

Runways:

RWY identifierQFULength (ft)Width (ft)SurfaceLDA (ft)
0311°282663DIRT
21191°282663DIRT

Airport contact information

Address: Primavera Paraguay

Satellite view of SGLPAZ